sensor_id;sensor_type;location;lat;lon;timestamp;P1;durP1;ratioP1;P2;durP2;ratioP2
35304;SDS011;26433;48.034;-1.764;2022-11-15T06:02:28;3.08;;;0.20;;
35304;SDS011;26433;48.034;-1.764;2022-11-15T06:07:50;0.40;;;0.20;;
35304;SDS011;26433;48.034;-1.764;2022-11-15T06:13:12;4.90;;;0.30;;
35304;SDS011;26433;48.034;-1.764;2022-11-15T06:18:35;0.25;;;0.20;;
35304;SDS011;26433;48.034;-1.764;2022-11-15T06:23:57;2.72;;;0.43;;
35304;SDS011;26433;48.034;-1.764;2022-11-15T06:29:19;1.17;;;0.30;;
35304;SDS011;26433;48.034;-1.764;2022-11-15T06:34:42;0.35;;;0.20;;
35304;SDS011;26433;48.034;-1.764;2022-11-15T06:40:04;0.73;;;0.20;;
35304;SDS011;26433;48.034;-1.764;2022-11-15T06:45:26;2.20;;;0.30;;
35304;SDS011;26433;48.034;-1.764;2022-11-15T06:50:51;0.30;;;0.30;;
35304;SDS011;26433;48.034;-1.764;2022-11-15T06:56:13;0.37;;;0.30;;
35304;SDS011;26433;48.034;-1.764;2022-11-15T07:01:35;0.80;;;0.30;;
35304;SDS011;26433;48.034;-1.764;2022-11-15T07:06:58;2.40;;;0.40;;
35304;SDS011;26433;48.034;-1.764;2022-11-15T07:12:20;7.53;;;0.62;;
35304;SDS011;26433;48.034;-1.764;2022-11-15T07:17:41;1.37;;;0.30;;
35304;SDS011;26433;48.034;-1.764;2022-11-15T07:23:04;4.68;;;0.50;;
35304;SDS011;26433;48.034;-1.764;2022-11-15T07:28:27;1.75;;;0.30;;
35304;SDS011;26433;48.034;-1.764;2022-11-15T07:33:49;1.08;;;0.40;;
35304;SDS011;26433;48.034;-1.764;2022-11-15T07:39:12;2.97;;;0.40;;
35304;SDS011;26433;48.034;-1.764;2022-11-15T07:44:35;0.32;;;0.13;;
35304;SDS011;26433;48.034;-1.764;2022-11-15T07:49:56;4.22;;;0.30;;
35304;SDS011;26433;48.034;-1.764;2022-11-15T07:55:19;0.10;;;0.10;;
35304;SDS011;26433;48.034;-1.764;2022-11-15T08:00:41;0.20;;;0.10;;
35304;SDS011;26433;48.034;-1.764;2022-11-15T08:06:03;1.05;;;0.20;;
35304;SDS011;26433;48.034;-1.764;2022-11-15T08:11:27;0.00;;;0.00;;
35304;SDS011;26433;48.034;-1.764;2022-11-15T08:16:49;0.35;;;0.13;;
35304;SDS011;26433;48.034;-1.764;2022-11-15T08:22:12;0.20;;;0.20;;
35304;SDS011;26433;48.034;-1.764;2022-11-15T08:27:35;0.30;;;0.20;;
35304;SDS011;26433;48.034;-1.764;2022-11-15T08:32:58;0.50;;;0.30;;
35304;SDS011;26433;48.034;-1.764;2022-11-15T08:38:19;0.43;;;0.15;;
35304;SDS011;26433;48.034;-1.764;2022-11-15T08:43:43;0.57;;;0.10;;
35304;SDS011;26433;48.034;-1.764;2022-11-15T08:49:05;0.10;;;0.10;;
35304;SDS011;26433;48.034;-1.764;2022-11-15T08:54:27;0.37;;;0.22;;
35304;SDS011;26433;48.034;-1.764;2022-11-15T08:59:50;3.90;;;0.40;;
35304;SDS011;26433;48.034;-1.764;2022-11-15T09:05:12;0.65;;;0.20;;
35304;SDS011;26433;48.034;-1.764;2022-11-15T09:10:35;1.33;;;0.30;;
35304;SDS011;26433;48.034;-1.764;2022-11-15T09:15:59;0.10;;;0.10;;
35304;SDS011;26433;48.034;-1.764;2022-11-15T09:21:21;1.37;;;0.10;;
35304;SDS011;26433;48.034;-1.764;2022-11-15T09:26:43;2.42;;;0.30;;
35304;SDS011;26433;48.034;-1.764;2022-11-15T09:32:06;0.60;;;0.30;;
35304;SDS011;26433;48.034;-1.764;2022-11-15T09:37:28;0.90;;;0.40;;
35304;SDS011;26433;48.034;-1.764;2022-11-15T09:42:56;0.13;;;0.13;;
35304;SDS011;26433;48.034;-1.764;2022-11-15T09:48:43;0.95;;;0.60;;
35304;SDS011;26433;48.034;-1.764;2022-11-15T09:53:56;2.47;;;0.30;;
35304;SDS011;26433;48.034;-1.764;2022-11-15T09:59:39;0.50;;;0.30;;
35304;SDS011;26433;48.034;-1.764;2022-11-15T10:04:52;6.03;;;0.40;;
35304;SDS011;26433;48.034;-1.764;2022-11-15T10:09:58;0.90;;;0.40;;
35304;SDS011;26433;48.034;-1.764;2022-11-15T10:15:06;0.70;;;0.40;;
35304;SDS011;26433;48.034;-1.764;2022-11-15T10:20:17;2.37;;;0.60;;
35304;SDS011;26433;48.034;-1.764;2022-11-15T10:25:24;0.93;;;0.20;;
35304;SDS011;26433;48.034;-1.764;2022-11-15T10:30:30;3.70;;;0.52;;
35304;SDS011;26433;48.034;-1.764;2022-11-15T10:35:36;0.30;;;0.30;;
35304;SDS011;26433;48.034;-1.764;2022-11-15T10:40:40;1.25;;;0.60;;
35304;SDS011;26433;48.034;-1.764;2022-11-15T10:45:45;3.53;;;1.62;;
35304;SDS011;26433;48.034;-1.764;2022-11-15T10:50:53;1.77;;;0.30;;
35304;SDS011;26433;48.034;-1.764;2022-11-15T10:55:59;4.50;;;0.90;;
35304;SDS011;26433;48.034;-1.764;2022-11-15T11:01:10;0.30;;;0.30;;
35304;SDS011;26433;48.034;-1.764;2022-11-15T11:06:18;2.78;;;0.40;;
35304;SDS011;26433;48.034;-1.764;2022-11-15T11:11:23;9.52;;;0.70;;
35304;SDS011;26433;48.034;-1.764;2022-11-15T11:16:34;0.93;;;0.40;;
35304;SDS011;26433;48.034;-1.764;2022-11-15T11:21:49;3.22;;;0.50;;
35304;SDS011;26433;48.034;-1.764;2022-11-15T11:27:08;1.70;;;0.52;;
35304;SDS011;26433;48.034;-1.764;2022-11-15T11:32:35;1.52;;;0.57;;
35304;SDS011;26433;48.034;-1.764;2022-11-15T11:37:47;5.70;;;0.98;;
35304;SDS011;26433;48.034;-1.764;2022-11-15T11:42:55;4.00;;;0.77;;
35304;SDS011;26433;48.034;-1.764;2022-11-15T11:48:07;3.35;;;0.75;;
35304;SDS011;26433;48.034;-1.764;2022-11-15T11:53:22;0.50;;;0.20;;
35304;SDS011;26433;48.034;-1.764;2022-11-15T11:58:33;4.93;;;0.88;;
35304;SDS011;26433;48.034;-1.764;2022-11-15T12:03:40;3.10;;;0.45;;
35304;SDS011;26433;48.034;-1.764;2022-11-15T12:08:52;2.75;;;0.73;;
35304;SDS011;26433;48.034;-1.764;2022-11-15T12:19:08;0.43;;;0.40;;
35304;SDS011;26433;48.034;-1.764;2022-11-15T12:24:14;5.90;;;1.03;;
35304;SDS011;26433;48.034;-1.764;2022-11-15T12:29:23;7.97;;;0.57;;
35304;SDS011;26433;48.034;-1.764;2022-11-15T12:34:41;9.38;;;1.25;;
35304;SDS011;26433;48.034;-1.764;2022-11-15T12:45:25;1.15;;;0.10;;
35304;SDS011;26433;48.034;-1.764;2022-11-15T12:56:09;6.95;;;0.60;;
35304;SDS011;26433;48.034;-1.764;2022-11-15T13:07:01;3.92;;;0.45;;
35304;SDS011;26433;48.034;-1.764;2022-11-15T13:12:08;4.15;;;0.47;;
35304;SDS011;26433;48.034;-1.764;2022-11-15T13:17:17;3.12;;;0.45;;
35304;SDS011;26433;48.034;-1.764;2022-11-15T13:22:38;0.30;;;0.22;;
35304;SDS011;26433;48.034;-1.764;2022-11-15T13:33:09;4.82;;;0.75;;
35304;SDS011;26433;48.034;-1.764;2022-11-15T13:38:25;0.95;;;0.45;;
35304;SDS011;26433;48.034;-1.764;2022-11-15T13:43:34;2.70;;;0.30;;
35304;SDS011;26433;48.034;-1.764;2022-11-15T13:48:38;2.72;;;0.40;;
35304;SDS011;26433;48.034;-1.764;2022-11-15T13:58:50;1.35;;;0.20;;
35304;SDS011;26433;48.034;-1.764;2022-11-15T14:03:55;2.47;;;0.20;;
35304;SDS011;26433;48.034;-1.764;2022-11-15T14:09:28;1.08;;;0.32;;
35304;SDS011;26433;48.034;-1.764;2022-11-15T14:14:49;4.07;;;0.50;;
35304;SDS011;26433;48.034;-1.764;2022-11-15T14:19:53;2.80;;;0.45;;
35304;SDS011;26433;48.034;-1.764;2022-11-15T14:25:04;0.43;;;0.10;;
35304;SDS011;26433;48.034;-1.764;2022-11-15T14:30:20;0.00;;;0.00;;
35304;SDS011;26433;48.034;-1.764;2022-11-15T14:35:24;0.13;;;0.10;;
35304;SDS011;26433;48.034;-1.764;2022-11-15T14:40:27;4.07;;;0.40;;
35304;SDS011;26433;48.034;-1.764;2022-11-15T14:45:33;11.80;;;0.10;;
35304;SDS011;26433;48.034;-1.764;2022-11-15T14:50:36;0.57;;;0.30;;
35304;SDS011;26433;48.034;-1.764;2022-11-15T14:55:40;0.00;;;0.00;;
35304;SDS011;26433;48.034;-1.764;2022-11-15T15:00:45;0.57;;;0.03;;
35304;SDS011;26433;48.034;-1.764;2022-11-15T15:05:49;0.95;;;0.20;;
35304;SDS011;26433;48.034;-1.764;2022-11-15T15:10:53;0.20;;;0.13;;
35304;SDS011;26433;48.034;-1.764;2022-11-15T15:16:00;0.37;;;0.03;;
35304;SDS011;26433;48.034;-1.764;2022-11-15T15:21:11;0.30;;;0.10;;
35304;SDS011;26433;48.034;-1.764;2022-11-15T15:26:21;1.80;;;0.22;;
35304;SDS011;26433;48.034;-1.764;2022-11-15T15:31:27;0.65;;;0.22;;
35304;SDS011;26433;48.034;-1.764;2022-11-15T15:36:30;0.57;;;0.10;;
35304;SDS011;26433;48.034;-1.764;2022-11-15T15:41:34;1.10;;;0.27;;
35304;SDS011;26433;48.034;-1.764;2022-11-15T15:46:39;2.17;;;0.40;;
35304;SDS011;26433;48.034;-1.764;2022-11-15T15:51:43;0.62;;;0.17;;
35304;SDS011;26433;48.034;-1.764;2022-11-15T15:56:46;0.75;;;0.20;;
35304;SDS011;26433;48.034;-1.764;2022-11-15T16:01:58;2.17;;;0.20;;
35304;SDS011;26433;48.034;-1.764;2022-11-15T16:07:01;0.10;;;0.10;;
35304;SDS011;26433;48.034;-1.764;2022-11-15T16:12:06;1.02;;;0.43;;
35304;SDS011;26433;48.034;-1.764;2022-11-15T16:17:11;2.57;;;0.20;;
35304;SDS011;26433;48.034;-1.764;2022-11-15T16:22:21;3.60;;;0.30;;
35304;SDS011;26433;48.034;-1.764;2022-11-15T16:27:25;1.30;;;0.23;;
35304;SDS011;26433;48.034;-1.764;2022-11-15T16:32:30;1.03;;;0.20;;
35304;SDS011;26433;48.034;-1.764;2022-11-15T16:37:34;0.77;;;0.15;;
35304;SDS011;26433;48.034;-1.764;2022-11-15T16:42:38;1.50;;;0.40;;
35304;SDS011;26433;48.034;-1.764;2022-11-15T16:47:43;1.03;;;0.77;;
35304;SDS011;26433;48.034;-1.764;2022-11-15T16:52:47;1.65;;;0.77;;
35304;SDS011;26433;48.034;-1.764;2022-11-15T16:57:50;0.80;;;0.33;;
35304;SDS011;26433;48.034;-1.764;2022-11-15T17:02:56;0.20;;;0.10;;
35304;SDS011;26433;48.034;-1.764;2022-11-15T17:08:00;3.45;;;1.30;;
35304;SDS011;26433;48.034;-1.764;2022-11-15T17:13:03;1.33;;;0.47;;
35304;SDS011;26433;48.034;-1.764;2022-11-15T17:18:09;0.73;;;0.60;;
35304;SDS011;26433;48.034;-1.764;2022-11-15T17:23:14;7.80;;;0.90;;
35304;SDS011;26433;48.034;-1.764;2022-11-15T17:28:18;3.62;;;1.25;;
35304;SDS011;26433;48.034;-1.764;2022-11-15T17:33:23;4.97;;;1.50;;
35304;SDS011;26433;48.034;-1.764;2022-11-15T17:38:27;3.75;;;0.80;;
35304;SDS011;26433;48.034;-1.764;2022-11-15T17:43:32;3.72;;;0.93;;
35304;SDS011;26433;48.034;-1.764;2022-11-15T17:48:37;6.22;;;1.50;;
35304;SDS011;26433;48.034;-1.764;2022-11-15T17:53:42;7.82;;;1.45;;
35304;SDS011;26433;48.034;-1.764;2022-11-15T17:58:47;11.55;;;1.42;;
35304;SDS011;26433;48.034;-1.764;2022-11-15T18:03:52;13.05;;;2.33;;
35304;SDS011;26433;48.034;-1.764;2022-11-15T18:08:57;4.85;;;1.25;;
35304;SDS011;26433;48.034;-1.764;2022-11-15T18:14:02;1.52;;;1.08;;
35304;SDS011;26433;48.034;-1.764;2022-11-15T18:19:08;4.43;;;1.17;;
35304;SDS011;26433;48.034;-1.764;2022-11-15T18:24:14;8.57;;;1.90;;
35304;SDS011;26433;48.034;-1.764;2022-11-15T18:29:18;2.72;;;1.48;;
35304;SDS011;26433;48.034;-1.764;2022-11-15T18:34:25;7.05;;;1.40;;
35304;SDS011;26433;48.034;-1.764;2022-11-15T18:39:33;3.28;;;1.73;;
35304;SDS011;26433;48.034;-1.764;2022-11-15T18:44:37;5.47;;;1.43;;
35304;SDS011;26433;48.034;-1.764;2022-11-15T18:49:42;2.90;;;1.63;;
35304;SDS011;26433;48.034;-1.764;2022-11-15T18:54:46;13.70;;;1.65;;
35304;SDS011;26433;48.034;-1.764;2022-11-15T18:59:49;5.32;;;2.22;;
35304;SDS011;26433;48.034;-1.764;2022-11-15T19:04:54;5.07;;;2.10;;
35304;SDS011;26433;48.034;-1.764;2022-11-15T19:09:58;8.10;;;1.67;;
35304;SDS011;26433;48.034;-1.764;2022-11-15T19:15:02;1.27;;;0.70;;
35304;SDS011;26433;48.034;-1.764;2022-11-15T19:20:12;1.45;;;0.85;;
35304;SDS011;26433;48.034;-1.764;2022-11-15T19:25:16;7.22;;;1.00;;
35304;SDS011;26433;48.034;-1.764;2022-11-15T19:30:20;2.35;;;1.00;;
35304;SDS011;26433;48.034;-1.764;2022-11-15T19:35:25;3.03;;;0.90;;
35304;SDS011;26433;48.034;-1.764;2022-11-15T19:40:28;7.87;;;0.80;;
35304;SDS011;26433;48.034;-1.764;2022-11-15T19:45:34;3.08;;;1.08;;
35304;SDS011;26433;48.034;-1.764;2022-11-15T19:50:39;1.90;;;1.10;;
35304;SDS011;26433;48.034;-1.764;2022-11-15T19:55:51;4.87;;;1.20;;
35304;SDS011;26433;48.034;-1.764;2022-11-15T20:00:59;5.97;;;1.65;;
35304;SDS011;26433;48.034;-1.764;2022-11-15T20:06:07;1.87;;;1.00;;
35304;SDS011;26433;48.034;-1.764;2022-11-15T20:11:12;4.15;;;0.70;;
35304;SDS011;26433;48.034;-1.764;2022-11-15T20:21:22;3.87;;;0.63;;
35304;SDS011;26433;48.034;-1.764;2022-11-15T20:26:25;1.62;;;0.60;;
35304;SDS011;26433;48.034;-1.764;2022-11-15T20:31:30;1.60;;;0.50;;
35304;SDS011;26433;48.034;-1.764;2022-11-15T20:36:35;2.67;;;0.37;;
35304;SDS011;26433;48.034;-1.764;2022-11-15T20:41:39;4.03;;;0.37;;
35304;SDS011;26433;48.034;-1.764;2022-11-15T20:46:42;1.08;;;0.40;;
35304;SDS011;26433;48.034;-1.764;2022-11-15T20:51:48;0.93;;;0.43;;
35304;SDS011;26433;48.034;-1.764;2022-11-15T20:56:51;4.35;;;0.28;;
35304;SDS011;26433;48.034;-1.764;2022-11-15T21:01:55;0.30;;;0.28;;
35304;SDS011;26433;48.034;-1.764;2022-11-15T21:07:01;1.50;;;0.50;;
35304;SDS011;26433;48.034;-1.764;2022-11-15T21:12:04;2.62;;;0.57;;
35304;SDS011;26433;48.034;-1.764;2022-11-15T21:17:14;0.57;;;0.30;;
35304;SDS011;26433;48.034;-1.764;2022-11-15T21:22:19;10.20;;;0.80;;
35304;SDS011;26433;48.034;-1.764;2022-11-15T21:27:23;2.83;;;0.35;;
35304;SDS011;26433;48.034;-1.764;2022-11-15T21:32:26;1.92;;;0.50;;
35304;SDS011;26433;48.034;-1.764;2022-11-15T21:37:32;1.35;;;0.55;;
35304;SDS011;26433;48.034;-1.764;2022-11-15T21:42:35;2.45;;;0.80;;
35304;SDS011;26433;48.034;-1.764;2022-11-15T21:47:39;1.83;;;0.68;;
35304;SDS011;26433;48.034;-1.764;2022-11-15T21:52:48;1.62;;;0.60;;
35304;SDS011;26433;48.034;-1.764;2022-11-15T21:57:52;6.55;;;1.37;;
35304;SDS011;26433;48.034;-1.764;2022-11-15T22:02:56;2.42;;;0.32;;
35304;SDS011;26433;48.034;-1.764;2022-11-15T22:08:01;0.77;;;0.63;;
35304;SDS011;26433;48.034;-1.764;2022-11-15T22:13:04;3.10;;;0.68;;
35304;SDS011;26433;48.034;-1.764;2022-11-15T22:18:08;0.83;;;0.43;;
35304;SDS011;26433;48.034;-1.764;2022-11-15T22:23:13;3.63;;;0.30;;
35304;SDS011;26433;48.034;-1.764;2022-11-15T22:28:17;1.42;;;0.30;;
35304;SDS011;26433;48.034;-1.764;2022-11-15T22:33:22;0.30;;;0.30;;
35304;SDS011;26433;48.034;-1.764;2022-11-15T22:38:28;1.55;;;0.62;;
35304;SDS011;26433;48.034;-1.764;2022-11-15T22:43:33;1.20;;;0.40;;
35304;SDS011;26433;48.034;-1.764;2022-11-15T22:48:37;2.83;;;0.33;;
35304;SDS011;26433;48.034;-1.764;2022-11-15T22:53:42;2.73;;;0.43;;
35304;SDS011;26433;48.034;-1.764;2022-11-15T22:58:46;2.08;;;0.40;;
35304;SDS011;26433;48.034;-1.764;2022-11-15T23:03:49;2.03;;;0.50;;
35304;SDS011;26433;48.034;-1.764;2022-11-15T23:08:54;0.93;;;0.37;;
35304;SDS011;26433;48.034;-1.764;2022-11-15T23:13:58;0.55;;;0.40;;
35304;SDS011;26433;48.034;-1.764;2022-11-15T23:19:03;8.07;;;0.57;;
35304;SDS011;26433;48.034;-1.764;2022-11-15T23:24:10;0.28;;;0.20;;
35304;SDS011;26433;48.034;-1.764;2022-11-15T23:29:16;1.10;;;0.30;;
